Photo de Laille
Rennes
Ciel dégagé
Metar : 2018/08/14 18:00 LFRN 141800Z AUTO 35008KT 330V030 CAVOK 23/17 Q1020 NOSIG
Couverture nuageuse :
Pression de 30.12 inHg (1020 hPa)
Humidité : 69%
Température : 73°F (23°C)
Vent de N at 9 mph (15 km/h)
Visibilité : greater than 7 miles (10 km)
Nantes
quelques nuages
Metar : 2018/08/14 18:00 LFRS 141800Z AUTO 28007KT 9999 FEW049 22/17 Q1021 NOSIG
Couverture nuageuse : Few Clouds 4900 ft
Traduc : Partly cloudy 700 ft
Pression de 30.15 inHg (1021 hPa)
Humidité : 73%
Température : 72°F (22°C)
Point de rosée : 63°F (17°C)
Vent de W at 8 mph (13 km/h)
Visibilité : 6 miles (10 km)
Lannion
couvert
Metar : 2018/08/14 18:00 LFRO 141800Z AUTO 26010KT 9999 OVC005 18/17 Q1022 TEMPO 3000 BR
Couverture nuageuse : Overcast 500 ft
Traduc : Partly cloudy 700 ft
Pression de 30.18 inHg (1022 hPa)
Humidité : 94%
Température : 64°F (18°C)
Point de rosée : 63°F (17°C)
Vent de W at 12 mph (19 km/h)
Visibilité : 6 miles (10 km)
Dinard
nuageux
Metar : 2018/08/14 18:00 LFRD 141800Z AUTO 32008KT 9999 BKN010 BKN018 BKN025 19/16 Q1021 NOSIG
Couverture nuageuse : Mostly Cloudy 1000 ft Mostly Cloudy 1800 ft Mostly Cloudy 2500 ft
Traduc : Partly cloudy 700 ft
Pression de 30.15 inHg (1021 hPa)
Humidité : 83%
Température : 66°F (19°C)
Point de rosée : 61°F (16°C)
Vent de NW at 9 mph (15 km/h)
Visibilité : 6 miles (10 km)
Brest
couvert
Metar : 2018/08/14 18:00 LFRB 141800Z AUTO 28007KT 9999 BKN009 BKN015 OVC023 19/18 Q1022 TEMPO 3000 BR
Couverture nuageuse : Mostly Cloudy 900 ft Mostly Cloudy 1500 ft Overcast 2300 ft
Traduc : Partly cloudy 700 ft
Pression de 30.18 inHg (1022 hPa)
Humidité : 94%
Température : 66°F (19°C)
Point de rosée : 64°F (18°C)
Vent de W at 8 mph (13 km/h)
Visibilité : 6 miles (10 km)
Quimper
couvert
Metar : 2018/08/14 18:00 LFRQ 141800Z AUTO 32009KT 9999 BKN014 OVC021 19/16 Q1022 TEMPO 3000 BR BKN003
Couverture nuageuse : Mostly Cloudy 1400 ft Overcast 2100 ft
Traduc : Partly cloudy 700 ft
Pression de 30.18 inHg (1022 hPa)
Humidité : 83%
Température : 66°F (19°C)
Point de rosée : 61°F (16°C)
Vent de NW at 10 mph (17 km/h)
Visibilité : 6 miles (10 km)
St Nazaire
Ciel dégagé
Metar : 2018/08/14 18:00 LFRZ 141800Z AUTO 27008KT CAVOK 22/18 Q1021 NOSIG
Couverture nuageuse :
Traduc : Partly cloudy 700 ft
Pression de 30.15 inHg (1021 hPa)
Humidité : 78%
Température : 72°F (22°C)
Point de rosée : 64°F (18°C)
Vent de W at 9 mph (15 km/h)
Visibilité : greater than 7 miles (10 km)
St Brieuc
couvert
Metar : 2018/08/14 18:00 LFRT 141800Z AUTO 32007KT 9999 FEW022 OVC028 21/17 Q1021
Couverture nuageuse : Few Clouds 2200 ft Overcast 2800 ft
Traduc : Partly cloudy 700 ft
Pression de 30.15 inHg (1021 hPa)
Humidité : 78%
Température : 70°F (21°C)
Point de rosée : 63°F (17°C)
Vent de NW at 8 mph (13 km/h)
Visibilité : 6 miles (10 km)
Lorient
nuageux
Metar : 2018/08/14 18:00 LFRH 141800Z AUTO 25009KT 9999 BKN025 BKN030 22/19 Q1021 NOSIG
Couverture nuageuse : Mostly Cloudy 2500 ft Mostly Cloudy 3000 ft
Traduc : Partly cloudy 700 ft
Pression de 30.15 inHg (1021 hPa)
Humidité : 83%
Température : 72°F (22°C)
Point de rosée : 66°F (19°C)
Vent de WSW at 10 mph (17 km/h)
Visibilité : 6 miles (10 km)
Vannes-Meucon
Ciel dégagé
Metar : 2018/08/14 18:00 LFRV 141800Z AUTO 25007KT 220V280 CAVOK 22/18 Q1021
Couverture nuageuse :
Traduc : Partly cloudy 700 ft
Pression de 30.15 inHg (1021 hPa)
Humidité : 78%
Température : 72°F (22°C)
Point de rosée : 64°F (18°C)
Vent de WSW at 8 mph (13 km/h)
Visibilité : greater than 7 miles (10 km)

 


   Weather Underground PWS IBRETAGN39      Weather Underground PWS IBRETAGN39Retour Météo-Laillé adhérent de Météo-Bretagne et d'Infoclimat. Données mises à jour en temps réel via Météolink Climatologie réalisée sous Wswin et GraphWeather.

Affichage prévisions météo de WeatherUnderground via script PHP de Saratoga.

Copyright 2012-2018